Kezdőlap
METAR-TAF:

METAR-TAF

Repülőterek :

Olsztyn-Mazury

Olsztyn, Lengyelország

földrajzi szélesség: 53-28-55N, földrajzi hosszúság: 20-56-16E, magasság: 141 m

Jelenlegi meteorológiai megfigyelések

A jelentés 34 perccel ezelõtt készült, 03:30 UTC
Különbözõ irányokból fújó szél 2 kt
Hőmérséklet 11°C
Páratartalom 82%
Légköri nyomás 1014 hPa
Látótávolság 10 km, vagy több
felhőtlen 1500 m magasságban, és nincs gomolyfelhõ

METAR: EPSY 150330Z VRB02KT CAVOK 11/08 Q1014

Idő: 06:04 (04:04 UTC)

Előrejelzés

A jelentés 1 órával és 34 perccel ezelõtt készült, 02:30 UTC
Az előrejelzés 15-én 03 óra UTC és 15-én 12 óra UTC között érvényes
Különbözõ irányokból fújó szél 3 kt
Látótávolság 10 km, vagy több
felhőtlen 1500 m magasságban, és nincs gomolyfelhõ
15-én 07 óra UTC és 15-én 10 óra UTC között fokozatosan kialakuló
Dél-délkeleti szél 10 kt

TAF: EPSY 150230Z 1503/1512 VRB03KT CAVOK BECMG 1507/1510 15010KT

Meteorológiai megfigyelések és előrejelzések több, mint 4000 repülőtéren (METAR és TAF jelentéseket).

A térképen piros és sárga pontok jelzik az elérhető meteorológiai állomásokat.

Mozgassa az egeret a pont fölött, hogy megjelenjen az állomás neve.

Azután kattintson az időjárási megfigyelések és előrejelzések megtekintéséhez.

A térkép megváltoztatása: kattintson a fekete keresztel jelölt zöld gombra ráközelítéshez, a vonallal jelölt zöld gombra távolításhoz, vagy a zöld nyilakra a szomszédos térképek eléréséhez.


METAR-TAF: